Latest Coastal Weather Observations for Orbost

IDV60701

Issued at 7:52 pm EST Monday 4 May 2026 (issued every 10 minutes, with the page automatically refreshed every 10 minutes)

About coastal observations | Map of coastal stations | Coastal observations for VIC | Marine services | Other Formats
Station Details ID: 084145 Name: ORBOST Lat: -37.69 Lon: 148.47 Height: 62.65 m
Data from the previous 72 hours. | See also: Recent months at Orbost
Date/Time
EST
Wind Sea
Height
m
Swell Vis
km
Cloud Weather Temp
°C
Press
MSL
hPa
Rain since
9am
mm
Dir  Spd
kts
Gust
kts
Height
m
Period
s
Dir
04/07:30pm N 5 7 - - - - - - - 14.9 1012.3 0.0
04/07:00pm N 4 5 - - - - - - - 15.3 1012.4 0.0
04/06:30pm NNE 4 7 - - - - - - - 16.8 1012.0 0.0
04/06:00pm N 6 8 - - - - - - - 16.0 1011.8 0.0
04/05:30pm N 5 7 - - - - - - - 17.1 1011.6 0.0
04/05:00pm N 7 9 - - - - - - - 17.3 1011.4 0.0
04/04:30pm NNW 7 12 - - - - - - - 19.5 1011.3 0.0
04/04:00pm NNW 9 13 - - - - - - - 20.3 1010.9 0.0
04/03:30pm NW 6 10 - - - - - - - 21.3 1011.0 0.0
04/03:00pm WNW 7 12 - - - - - - - 21.7 1010.9 0.0
04/02:30pm NW 7 11 - - - - - - - 21.8 1010.6 0.0
04/02:00pm NNW 3 5 - - - - - - - 21.7 1010.6 0.0
04/01:30pm W 3 6 - - - - - - - 21.1 1010.8 0.0
04/01:00pm W 3 5 - - - - - - - 20.7 1011.2 0.0
04/12:30pm WNW 3 6 - - - - - - - 20.3 1011.6 0.0
04/12:00pm WSW 5 7 - - - - - - - 18.8 1012.1 0.0
04/11:30am SW 7 9 - - - - - - - 18.4 1012.8 0.0
04/11:00am SW 4 8 - - - - - - - 19.4 1013.0 0.0
04/10:30am S 3 5 - - - - - - - 18.6 1013.1 0.0
04/10:00am SW 2 3 - - - - - - - 17.9 1013.2 0.0
04/09:30am WNW 2 4 - - - - - - - 17.5 1013.4 0.0
04/09:00am WNW 3 4 - - - - - - - 16.5 1013.7 10.6
04/08:30am WNW 1 3 - - - - - - - 15.5 1013.3 10.6
04/08:00am N 1 2 - - - - - - - 14.9 1013.1 10.6
04/07:30am NW 2 3 - - - - - - - 14.3 1012.9 10.6
04/07:00am W 3 4 - - - - - - - 14.4 1012.5 10.6
04/06:30am WSW 4 6 - - - - - - - 14.7 1012.4 10.4
04/06:00am NNE 3 3 - - - - - - Recent precip. 15.2 1012.1 10.4
04/05:30am NNE 2 3 - - - - - - - 15.0 1012.1 10.0
04/05:00am N 4 5 - - - - - - - 14.9 1012.0 10.0
04/04:30am N 1 2 - - - - - - - 15.0 1011.8 10.0
04/04:00am NW 2 2 - - - - - - - 15.2 1012.1 10.0
04/03:30am NW 2 3 - - - - - - - 15.6 1012.3 10.0
04/03:00am E 4 6 - - - - - - Rain 16.1 1011.3 10.0
04/02:30am ENE 4 6 - - - - - - - 15.8 1012.2 9.4
04/02:00am NNE 2 3 - - - - - - - 15.9 1013.5 9.0
04/01:30am ENE 2 3 - - - - - - - 16.0 1013.4 8.0
04/01:00am NNE 2 3 - - - - - - - 16.1 1013.9 6.2
04/12:30am N 2 3 - - - - - - - 16.2 1013.8 4.4
04/12:00am ESE 2 4 - - - - - - Rain 16.3 1013.4 3.4
 
Date/Time
EST
Wind Sea
Height
m
Swell Vis
km
Cloud Weather Temp
°C
Press
MSL
hPa
Rain since
9am
mm
Dir  Spd
kts
Gust
kts
Height
m
Period
s
Dir
03/11:30pm CALM 0 2 - - - - - - - 16.8 1013.5 2.4
03/11:00pm ENE 4 6 - - - - - - - 17.0 1012.4 2.0
03/10:30pm NE 4 6 - - - - - - - 17.3 1012.8 2.0
03/10:00pm ENE 3 5 - - - - - - - 17.2 1013.4 2.0
03/09:30pm NNE 3 4 - - - - - - - 17.9 1013.9 2.0
03/09:00pm E 3 4 - - - - - - Rain 18.2 1013.4 0.6
03/08:30pm ESE 3 4 - - - - - - - 18.9 1013.2 0.2
03/08:00pm ENE 2 4 - - - - - - - 21.0 1012.7 0.0
03/07:30pm ENE 1 3 - - - - - - - 21.6 1012.3 0.0
03/07:00pm N 3 4 - - - - - - - 22.0 1012.0 0.0
03/06:30pm NNE 1 3 - - - - - - - 22.7 1011.5 0.0
03/06:00pm NNE 4 7 - - - - - - - 23.1 1011.6 0.0
03/05:30pm NE 1 2 - - - - - - - 23.0 1011.6 0.0
03/05:00pm N 6 10 - - - - - - - 23.5 1011.8 0.0
03/04:30pm N 7 12 - - - - - - - 24.4 1011.8 0.0
03/04:00pm N 6 12 - - - - - - - 24.2 1012.1 0.0
03/03:30pm N 5 7 - - - - - - - 24.2 1012.7 0.0
03/03:00pm N 7 15 - - - - - - - 24.4 1012.8 0.0
03/02:30pm N 6 11 - - - - - - - 24.2 1012.8 0.0
03/02:00pm ENE 2 3 - - - - - - - 22.9 1012.7 0.0
03/01:30pm N 5 10 - - - - - - - 22.2 1013.1 0.0
03/01:00pm N 5 9 - - - - - - - 23.5 1013.3 0.0
03/12:30pm NNW 5 8 - - - - - - - 23.9 1013.5 0.0
03/12:00pm N 8 12 - - - - - - - 24.2 1013.9 0.0
03/11:30am N 7 13 - - - - - - - 23.9 1014.3 0.0
03/11:00am N 4 7 - - - - - - - 23.7 1014.8 0.0
03/10:30am NNE 8 13 - - - - - - - 23.8 1015.0 0.0
03/10:00am N 9 14 - - - - - - - 24.6 1015.1 0.0
03/09:30am NW 3 9 - - - - - - - 22.2 1015.5 0.0
03/09:00am NNE 4 8 - - - - - - - 21.5 1015.6 0.0
03/08:30am NNE 5 11 - - - - - - - 21.0 1015.6 0.0
03/08:00am NNE 6 12 - - - - - - - 20.6 1015.6 0.0
03/07:30am NNE 4 7 - - - - - - - 20.0 1015.6 0.0
03/07:00am NNE 4 7 - - - - - - - 19.9 1015.5 0.0
03/06:30am NE 4 7 - - - - - - - 19.6 1015.5 0.0
03/06:00am N 5 8 - - - - - - - 19.1 1015.7 0.0
03/05:30am CALM 0 0 - - - - - - - 14.6 1015.6 0.0
03/05:00am NNE 3 5 - - - - - - - 18.3 1015.6 0.0
03/04:30am NW 1 2 - - - - - - - 17.1 1015.7 0.0
03/04:00am NNW 1 2 - - - - - - - 15.3 1015.8 0.0
03/03:30am W 2 3 - - - - - - - 14.5 1016.0 0.0
03/03:00am N 1 4 - - - - - - - 15.6 1016.1 0.0
03/02:30am CALM 0 0 - - - - - - - 17.7 1016.3 0.0
03/02:00am CALM 0 0 - - - - - - - 15.3 1016.6 0.0
03/01:30am CALM 0 0 - - - - - - - 15.0 1016.8 0.0
03/01:00am CALM 0 0 - - - - - - - 15.6 1016.8 0.0
03/12:30am SE 1 1 - - - - - - - 15.6 1017.0 0.0
03/12:00am CALM 0 0 - - - - - - - 15.5 1017.5 0.0
 
Date/Time
EST
Wind Sea
Height
m
Swell Vis
km
Cloud Weather Temp
°C
Press
MSL
hPa
Rain since
9am
mm
Dir  Spd
kts
Gust
kts
Height
m
Period
s
Dir
02/11:30pm CALM 0 0 - - - - - - - 15.1 1017.7 0.0
02/11:00pm CALM 0 2 - - - - - - - 15.7 1017.9 0.0
02/10:30pm ENE 1 2 - - - - - - - 16.5 1018.1 0.0
02/10:00pm CALM 0 0 - - - - - - - 16.6 1018.5 0.0
02/09:30pm CALM 0 0 - - - - - - - 16.4 1018.6 0.0
02/09:00pm CALM 0 0 - - - - - - - 17.7 1018.5 0.0
02/08:30pm WNW 1 2 - - - - - - - 16.5 1018.5 0.0
02/08:00pm NE 3 7 - - - - - - - 18.6 1018.6 0.0
02/07:30pm WNW 1 2 - - - - - - - 16.7 1018.8 0.0
02/07:00pm NNW 1 5 - - - - - - - 17.7 1018.7 0.0
02/06:30pm ENE 3 6 - - - - - - - 19.6 1018.6 0.0
02/06:00pm ENE 4 7 - - - - - - - 19.2 1018.3 0.0
02/05:30pm NE 3 6 - - - - - - - 19.4 1018.4 0.0
02/05:00pm ENE 2 4 - - - - - - - 19.6 1018.4 0.0
02/04:30pm ENE 3 5 - - - - - - - 20.3 1018.3 0.0
02/04:00pm ENE 3 6 - - - - - - - 21.1 1018.6 0.0
02/03:30pm NE 3 7 - - - - - - - 21.6 1018.7 0.0
02/03:00pm NE 3 4 - - - - - - - 22.0 1018.9 0.0
02/02:30pm NE 3 5 - - - - - - - 22.4 1019.1 0.0
02/02:00pm NNE 3 7 - - - - - - - 22.6 1019.2 0.0
02/01:30pm N 6 8 - - - - - - - 22.8 1019.7 0.0
02/01:00pm N 4 7 - - - - - - - 23.1 1019.9 0.0
02/12:30pm N 5 7 - - - - - - - 22.6 1020.3 0.0
02/12:00pm NNE 5 8 - - - - - - - 22.3 1020.7 0.0
02/11:30am N 5 8 - - - - - - - 22.9 1021.3 0.0
02/11:00am N 8 11 - - - - - - - 22.6 1021.7 0.0
02/10:30am NNW 6 10 - - - - - - - 23.0 1021.9 0.0
02/10:00am NNW 6 8 - - - - - - - 21.7 1022.1 0.0
02/09:30am N 6 9 - - - - - - - 20.7 1022.3 0.0
02/09:00am N 5 7 - - - - - - - 19.4 1022.7 0.0
02/08:30am NNW 5 7 - - - - - - - 17.4 1022.6 0.0
02/08:00am NNW 5 6 - - - - - - - 14.3 1022.5 0.0
02/07:30am NNW 4 6 - - - - - - - 12.9 1022.2 0.0
02/07:00am CALM 0 0 - - - - - - - 14.2 1022.2 0.0
02/06:30am NW 1 2 - - - - - - - 14.0 1021.9 0.0
02/06:00am WNW 2 3 - - - - - - - 13.1 1021.9 0.0
02/05:30am NW 3 5 - - - - - - - 12.9 1021.8 0.0
02/05:00am N 4 7 - - - - - - - 16.7 1021.5 0.0
02/04:30am N 6 7 - - - - - - - 15.5 1021.7 0.0
02/04:00am N 4 6 - - - - - - - 15.0 1021.6 0.0
02/03:30am N 4 6 - - - - - - - 14.9 1021.7 0.0
02/03:00am NNW 2 4 - - - - - - - 14.1 1022.0 0.0
02/02:30am N 3 5 - - - - - - - 14.7 1022.2 0.0
02/02:00am NNW 2 4 - - - - - - - 15.1 1022.7 0.0
02/01:30am WNW 1 1 - - - - - - - 14.2 1022.8 0.0
02/01:00am N 3 5 - - - - - - - 15.8 1023.1 0.0
02/12:30am N 4 5 - - - - - - - 16.0 1023.2 0.0
02/12:00am NNW 1 2 - - - - - - - 15.8 1023.3 0.0
 
Date/Time
EST
Wind Sea
Height
m
Swell Vis
km
Cloud Weather Temp
°C
Press
MSL
hPa
Rain since
9am
mm
Dir  Spd
kts
Gust
kts
Height
m
Period
s
Dir
01/11:30pm NW 1 3 - - - - - - - 15.9 1023.4 0.0
01/11:00pm NNW 2 4 - - - - - - - 16.0 1023.6 0.0
01/10:30pm NW 3 3 - - - - - - - 15.6 1023.8 0.0
01/10:00pm NNW 3 6 - - - - - - - 14.7 1023.9 0.0
01/09:30pm NNE 3 8 - - - - - - - 18.4 1024.0 0.0
01/09:00pm NNW 1 3 - - - - - - - 15.7 1023.8 0.0
01/08:30pm CALM 0 0 - - - - - - - 15.8 1023.9 0.0
01/08:00pm CALM 0 1 - - - - - - - 16.7 1023.8 0.0

Other formats

Comma delimited format used in spreadsheet applications
http://www.bom.gov.au/fwo/IDV60701/IDV60701.95918.axf

JavaScript Object Notation format (JSON) in row-major order
http://www.bom.gov.au/fwo/IDV60701/IDV60701.95918.json

Data quality

Most of these data are generated automatically and are frequently updated. Quality checks on data are not normally performed. It is possible for incorrect values to appear. Refer to information at About Latest Weather Observations and please check the disclaimer before using these data.